createdAt,value
2018-07-28T00:03:13.502Z,7.10
2018-07-28T00:08:16.775Z,6.10
2018-07-28T00:13:19.950Z,6.10
2018-07-28T00:18:23.115Z,6.17
2018-07-28T00:23:26.309Z,6.67
2018-07-28T00:28:29.528Z,7.27
2018-07-28T00:33:35.227Z,6.20
2018-07-28T00:38:38.406Z,9.03
2018-07-28T00:43:44.122Z,6.70
2018-07-28T00:48:47.349Z,7.33
2018-07-28T00:53:50.637Z,6.50
2018-07-28T00:58:54.046Z,7.80
2018-07-28T01:03:57.358Z,6.53
2018-07-28T01:09:00.545Z,7.17
2018-07-28T01:14:04.751Z,6.40
2018-07-28T01:19:07.944Z,7.00
2018-07-28T01:24:11.153Z,8.60
2018-07-28T01:29:18.264Z,13.00
2018-07-28T01:34:21.471Z,8.73
2018-07-28T01:39:24.642Z,7.33
2018-07-28T01:44:27.831Z,7.77
2018-07-28T01:49:31.127Z,8.17
2018-07-28T01:54:34.309Z,7.00
2018-07-28T01:59:37.566Z,6.67
2018-07-28T02:04:40.734Z,7.17
2018-07-28T02:09:43.953Z,7.53
2018-07-28T02:14:47.152Z,9.40
2018-07-28T02:19:50.434Z,6.47
2018-07-28T02:24:53.961Z,6.13
2018-07-28T02:29:57.163Z,5.80
2018-07-28T02:35:00.394Z,10.40
2018-07-28T02:40:03.583Z,7.20
2018-07-28T02:45:06.722Z,11.80
2018-07-28T02:50:09.918Z,10.10
2018-07-28T02:55:13.089Z,9.13
2018-07-28T03:00:16.904Z,10.70
2018-07-28T03:05:20.037Z,10.60
2018-07-28T03:10:23.213Z,12.10
2018-07-28T03:15:35.070Z,9.03
2018-07-28T03:20:38.246Z,9.10
2018-07-28T03:25:41.413Z,11.37
2018-07-28T03:30:44.603Z,10.77
2018-07-28T03:35:48.758Z,10.70
2018-07-28T03:40:51.977Z,13.33
2018-07-28T03:45:55.207Z,10.60
2018-07-28T03:50:58.392Z,8.67
2018-07-28T03:56:01.537Z,8.07
2018-07-28T04:01:04.745Z,7.00
2018-07-28T04:06:07.905Z,7.37
2018-07-28T04:11:11.097Z,7.03
2018-07-28T04:16:14.715Z,6.80
2018-07-28T04:21:17.872Z,10.37
2018-07-28T04:26:21.029Z,9.07
2018-07-28T04:31:24.218Z,7.87
2018-07-28T04:36:27.378Z,14.30
2018-07-28T04:41:30.621Z,9.83
2018-07-28T04:46:33.912Z,15.67
2018-07-28T04:51:37.723Z,11.67
2018-07-28T04:56:40.929Z,11.93
2018-07-28T05:01:44.130Z,11.97
2018-07-28T05:06:47.297Z,14.10
2018-07-28T05:11:50.485Z,13.13
2018-07-28T05:16:53.700Z,13.27
2018-07-28T05:21:56.886Z,14.73
2018-07-28T05:27:00.135Z,15.20
2018-07-28T05:32:03.322Z,16.50
2018-07-28T05:37:06.568Z,10.77
2018-07-28T05:42:10.764Z,19.20
2018-07-28T05:47:14.050Z,13.70
2018-07-28T05:52:17.297Z,16.20
2018-07-28T05:57:20.276Z,13.10
2018-07-28T06:02:23.510Z,14.23
2018-07-28T06:07:26.766Z,14.13
2018-07-28T06:12:30.111Z,14.40
2018-07-28T06:17:33.323Z,11.63
2018-07-28T06:22:36.934Z,10.70
2018-07-28T06:27:40.313Z,13.80
2018-07-28T06:32:43.576Z,11.00
2018-07-28T06:37:46.728Z,17.93
2018-07-28T06:42:50.024Z,9.87
2018-07-28T06:47:53.232Z,13.83
2018-07-28T06:52:56.409Z,18.53
2018-07-28T06:57:59.606Z,12.47
2018-07-28T07:03:03.234Z,12.17
2018-07-28T07:08:06.881Z,15.73
2018-07-28T07:13:10.088Z,11.63
2018-07-28T07:18:13.304Z,11.23
2018-07-28T07:23:16.521Z,11.50
2018-07-28T07:28:20.866Z,13.47
2018-07-28T07:33:24.261Z,11.63
2018-07-28T07:38:28.480Z,17.33
2018-07-28T07:43:31.686Z,13.00
2018-07-28T07:48:35.289Z,20.47
2018-07-28T07:53:38.585Z,26.40
2018-07-28T07:58:41.767Z,22.40
2018-07-28T08:03:45.050Z,21.67
2018-07-28T08:08:48.274Z,21.17
2018-07-28T08:13:51.409Z,17.90
2018-07-28T08:18:54.686Z,20.03
2018-07-28T08:23:57.897Z,17.60
2018-07-28T08:29:02.157Z,19.80
2018-07-28T08:34:05.544Z,22.57
2018-07-28T08:39:11.194Z,25.47
2018-07-28T08:44:16.542Z,19.70
2018-07-28T08:49:21.005Z,16.93
2018-07-28T08:54:24.382Z,19.73
2018-07-28T08:59:28.074Z,14.57
2018-07-28T09:04:33.538Z,18.00
2018-07-28T09:09:36.821Z,18.63
2018-07-28T09:14:40.075Z,20.30
2018-07-28T09:19:43.336Z,29.03
2018-07-28T09:24:46.497Z,17.37
2018-07-28T09:29:50.843Z,19.13
2018-07-28T09:34:54.169Z,22.27
2018-07-28T09:39:57.505Z,19.27
2018-07-28T09:45:00.782Z,21.07
2018-07-28T09:50:04.492Z,18.37
2018-07-28T09:55:08.671Z,16.80
2018-07-28T10:00:14.113Z,15.17
2018-07-28T10:05:17.345Z,14.00
2018-07-28T10:10:21.997Z,14.70
2018-07-28T10:15:25.905Z,19.90
2018-07-28T10:20:32.856Z,19.33
2018-07-28T10:25:38.255Z,16.37
2018-07-28T10:30:44.920Z,15.00
2018-07-28T10:35:48.245Z,16.30
2018-07-28T10:40:51.986Z,16.47
2018-07-28T10:45:55.209Z,16.97
2018-07-28T10:50:58.429Z,17.70
2018-07-28T10:56:01.645Z,21.00
2018-07-28T11:01:04.834Z,19.37
2018-07-28T11:06:08.755Z,15.97
2018-07-28T11:11:11.992Z,17.87
2018-07-28T11:16:16.245Z,20.20
2018-07-28T11:21:19.501Z,17.17
2018-07-28T11:26:23.800Z,16.47
2018-07-28T11:31:38.517Z,17.00
2018-07-28T11:36:54.280Z,15.80
2018-07-28T11:42:12.600Z,15.47
2018-07-28T11:47:15.772Z,11.83
2018-07-28T11:52:19.070Z,12.33
2018-07-28T11:57:23.578Z,10.43
2018-07-28T12:02:28.085Z,13.73
2018-07-28T12:07:31.342Z,13.33
2018-07-28T12:12:34.759Z,11.77
2018-07-28T12:17:38.985Z,9.10
2018-07-28T12:22:42.200Z,12.47
2018-07-28T12:27:45.426Z,7.47
2018-07-28T12:32:48.656Z,4.57
2018-07-28T12:37:51.978Z,4.87
2018-07-28T12:43:01.813Z,4.73
2018-07-28T12:48:07.894Z,5.60
2018-07-28T12:53:15.514Z,5.63
2018-07-28T12:58:20.019Z,6.20
2018-07-28T13:03:23.251Z,5.23
2018-07-28T13:08:26.969Z,4.90
2018-07-28T13:13:30.170Z,7.73
2018-07-28T13:18:33.389Z,6.73
2018-07-28T13:23:37.765Z,5.20
2018-07-28T13:28:41.066Z,5.20
2018-07-28T13:33:44.731Z,5.13
2018-07-28T13:38:50.990Z,5.80
2018-07-28T13:43:54.206Z,6.53
2018-07-28T13:48:57.461Z,7.87
2018-07-28T13:54:00.861Z,7.40
2018-07-28T13:59:05.372Z,6.27
2018-07-28T14:04:08.638Z,6.97
2018-07-28T14:09:11.918Z,8.53
2018-07-28T14:14:15.141Z,6.77
2018-07-28T14:19:18.330Z,6.13
2018-07-28T14:24:22.598Z,6.80
2018-07-28T14:29:25.885Z,6.83
2018-07-28T14:34:29.354Z,6.70
2018-07-28T14:39:32.786Z,5.63
2018-07-28T14:44:36.042Z,6.37
2018-07-28T14:49:39.235Z,4.83
2018-07-28T14:54:43.829Z,5.17
2018-07-28T14:59:47.105Z,4.33
2018-07-28T15:04:50.297Z,5.20
2018-07-28T15:09:55.001Z,6.03
2018-07-28T15:14:59.264Z,4.43
2018-07-28T15:20:02.724Z,6.23
2018-07-28T15:25:09.494Z,5.10
2018-07-28T15:30:12.674Z,4.63
2018-07-28T15:35:15.911Z,5.33
2018-07-28T15:40:20.142Z,4.53
2018-07-28T15:45:23.334Z,4.67
2018-07-28T15:50:26.549Z,5.07
2018-07-28T15:55:29.786Z,4.80
2018-07-28T16:00:32.970Z,6.13
2018-07-28T16:05:36.216Z,4.80
2018-07-28T16:10:39.382Z,5.00
2018-07-28T16:15:42.997Z,5.03
2018-07-28T16:20:46.230Z,7.83
2018-07-28T16:25:49.517Z,5.30
2018-07-28T16:30:53.253Z,7.10
2018-07-28T16:35:56.490Z,6.47
2018-07-28T16:41:00.333Z,9.60
2018-07-28T16:46:03.649Z,7.30
2018-07-28T16:51:08.603Z,11.07
2018-07-28T16:56:12.149Z,8.10
2018-07-28T17:01:15.441Z,12.00
2018-07-28T17:06:19.758Z,8.40
2018-07-28T17:11:25.169Z,11.20
2018-07-28T17:16:28.357Z,9.43
2018-07-28T17:21:31.614Z,9.67
2018-07-28T17:26:42.278Z,9.47
2018-07-28T17:31:45.549Z,10.40
2018-07-28T17:36:48.849Z,13.90
2018-07-28T17:41:52.125Z,11.50
2018-07-28T17:46:55.450Z,9.90
2018-07-28T17:51:59.721Z,14.23
2018-07-28T17:57:03.895Z,14.77
2018-07-28T18:02:07.146Z,14.93
2018-07-28T18:07:11.205Z,13.93
2018-07-28T18:12:14.486Z,17.97
2018-07-28T18:17:18.710Z,17.50
2018-07-28T18:22:22.918Z,16.13
2018-07-28T18:27:26.165Z,19.13
2018-07-28T18:32:29.348Z,16.83
2018-07-28T18:37:32.593Z,20.63
2018-07-28T18:42:36.898Z,19.97
2018-07-28T18:47:40.113Z,18.63
2018-07-28T18:52:43.294Z,19.43
2018-07-28T18:57:46.512Z,16.63
2018-07-28T19:02:50.703Z,17.33
2018-07-28T19:07:54.637Z,18.87
2018-07-28T19:13:03.289Z,18.07
2018-07-28T19:18:12.043Z,19.33
2018-07-28T19:23:20.646Z,19.27
2018-07-28T19:28:36.723Z,20.13
2018-07-28T19:33:40.810Z,24.67
2018-07-28T19:38:45.376Z,21.77
2018-07-28T19:43:52.297Z,22.60
2018-07-28T19:48:57.581Z,23.17
2018-07-28T19:54:00.791Z,22.97
2018-07-28T19:59:04.172Z,22.10
2018-07-28T20:04:07.393Z,21.97
2018-07-28T20:09:12.281Z,21.20
2018-07-28T20:14:15.645Z,22.77
2018-07-28T20:19:19.132Z,26.60
2018-07-28T20:24:23.393Z,23.43
2018-07-28T20:29:27.477Z,21.77
2018-07-28T20:34:31.418Z,25.00
2018-07-28T20:39:34.778Z,23.57
2018-07-28T20:44:40.113Z,23.63
2018-07-28T20:49:44.370Z,25.47
2018-07-28T20:54:47.793Z,22.90
2018-07-28T20:59:51.152Z,23.40
2018-07-28T21:04:54.593Z,23.37
2018-07-28T21:09:57.835Z,23.53
2018-07-28T21:15:01.157Z,22.97
2018-07-28T21:20:04.720Z,24.57
2018-07-28T21:25:07.997Z,23.67
2018-07-28T21:30:11.182Z,23.00
2018-07-28T21:35:14.349Z,23.70
2018-07-28T21:40:17.527Z,24.93
2018-07-28T21:45:20.758Z,25.97
2018-07-28T21:50:24.211Z,26.40
2018-07-28T21:55:27.686Z,24.57
2018-07-28T22:01:38.933Z,24.73
2018-07-28T22:06:43.194Z,24.70
2018-07-28T22:11:46.442Z,20.80
2018-07-28T22:16:49.689Z,20.47
2018-07-28T22:21:54.401Z,22.73
2018-07-28T22:26:59.565Z,19.60
2018-07-28T22:32:05.433Z,21.53
2018-07-28T22:37:08.713Z,20.80
2018-07-28T22:42:13.658Z,23.27
2018-07-28T22:47:16.834Z,19.33
2018-07-28T22:52:22.849Z,22.60
2018-07-28T22:57:29.524Z,21.23
2018-07-28T23:02:33.217Z,19.00
2018-07-28T23:07:36.413Z,17.00
2018-07-28T23:12:41.294Z,17.47
2018-07-28T23:17:44.617Z,20.37
2018-07-28T23:22:48.877Z,16.57
2018-07-28T23:27:52.110Z,18.70
2018-07-28T23:32:55.258Z,20.00
2018-07-28T23:37:58.465Z,19.53
2018-07-28T23:43:01.690Z,19.47
2018-07-28T23:48:04.973Z,19.00
2018-07-28T23:53:08.174Z,18.13
2018-07-28T23:58:12.438Z,21.27
